sensor_id;sensor_type;location;lat;lon;timestamp;pressure;altitude;pressure_sealevel;temperature;humidity
72612;BME280;60655;52.182;4.474;2023-01-25T00:00:04;103913.34;;;3.35;81.46
72612;BME280;60655;52.182;4.474;2023-01-25T00:02:06;103912.41;;;3.51;80.42
72612;BME280;60655;52.182;4.474;2023-01-25T00:04:07;103912.22;;;3.54;80.38
72612;BME280;60655;52.182;4.474;2023-01-25T00:06:08;103899.28;;;3.36;80.14
72612;BME280;60655;52.182;4.474;2023-01-25T00:08:09;103909.41;;;3.43;80.55
72612;BME280;60655;52.182;4.474;2023-01-25T00:10:10;103888.75;;;3.36;80.74
72612;BME280;60655;52.182;4.474;2023-01-25T00:12:10;103905.16;;;3.54;80.46
72612;BME280;60655;52.182;4.474;2023-01-25T00:14:12;103903.00;;;3.47;79.98
72612;BME280;60655;52.182;4.474;2023-01-25T00:16:13;103904.13;;;3.57;79.91
72612;BME280;60655;52.182;4.474;2023-01-25T00:18:14;103894.09;;;3.49;80.35
72612;BME280;60655;52.182;4.474;2023-01-25T00:20:15;103897.03;;;3.45;79.79
72612;BME280;60655;52.182;4.474;2023-01-25T00:22:16;103886.78;;;3.54;81.73
72612;BME280;60655;52.182;4.474;2023-01-25T00:24:17;103884.91;;;3.56;80.46
72612;BME280;60655;52.182;4.474;2023-01-25T00:26:18;103876.63;;;3.48;80.00
72612;BME280;60655;52.182;4.474;2023-01-25T00:28:19;103876.34;;;3.53;80.36
72612;BME280;60655;52.182;4.474;2023-01-25T00:30:20;103873.16;;;3.48;79.62
72612;BME280;60655;52.182;4.474;2023-01-25T00:36:39;103874.75;;;3.50;80.83
72612;BME280;60655;52.182;4.474;2023-01-25T00:38:42;103876.38;;;3.38;80.70
72612;BME280;60655;52.182;4.474;2023-01-25T00:40:43;103872.91;;;3.38;81.28
72612;BME280;60655;52.182;4.474;2023-01-25T00:42:44;103876.66;;;3.34;80.93
72612;BME280;60655;52.182;4.474;2023-01-25T00:44:45;103873.09;;;3.35;80.42
72612;BME280;60655;52.182;4.474;2023-01-25T00:46:46;103863.63;;;3.32;80.40
72612;BME280;60655;52.182;4.474;2023-01-25T00:48:47;103860.22;;;3.30;80.83
72612;BME280;60655;52.182;4.474;2023-01-25T00:50:48;103865.56;;;3.29;80.57
72612;BME280;60655;52.182;4.474;2023-01-25T00:52:49;103869.16;;;3.42;80.46
72612;BME280;60655;52.182;4.474;2023-01-25T00:54:50;103861.66;;;3.36;79.40
72612;BME280;60655;52.182;4.474;2023-01-25T00:56:52;103864.53;;;3.31;80.18
72612;BME280;60655;52.182;4.474;2023-01-25T00:58:53;103865.50;;;3.16;81.21
72612;BME280;60655;52.182;4.474;2023-01-25T01:00:55;103866.03;;;3.07;80.17
72612;BME280;60655;52.182;4.474;2023-01-25T01:02:56;103859.47;;;3.28;80.28
72612;BME280;60655;52.182;4.474;2023-01-25T01:04:57;103856.84;;;3.28;79.77
72612;BME280;60655;52.182;4.474;2023-01-25T01:06:58;103869.59;;;3.06;81.73
72612;BME280;60655;52.182;4.474;2023-01-25T01:08:59;103858.44;;;2.88;82.00
72612;BME280;60655;52.182;4.474;2023-01-25T01:11:02;103867.25;;;3.01;81.04
72612;BME280;60655;52.182;4.474;2023-01-25T01:13:03;103862.84;;;2.88;81.40
72612;BME280;60655;52.182;4.474;2023-01-25T01:15:05;103869.31;;;2.96;81.10
72612;BME280;60655;52.182;4.474;2023-01-25T01:17:06;103861.19;;;3.15;81.18
72612;BME280;60655;52.182;4.474;2023-01-25T01:19:08;103860.53;;;3.12;80.92
72612;BME280;60655;52.182;4.474;2023-01-25T01:21:09;103862.28;;;3.25;80.88
72612;BME280;60655;52.182;4.474;2023-01-25T01:23:10;103851.28;;;2.90;81.14
72612;BME280;60655;52.182;4.474;2023-01-25T01:25:11;103863.81;;;3.15;81.29
72612;BME280;60655;52.182;4.474;2023-01-25T01:27:13;103862.03;;;3.16;81.12
72612;BME280;60655;52.182;4.474;2023-01-25T01:29:14;103852.25;;;3.32;80.88
72612;BME280;60655;52.182;4.474;2023-01-25T01:31:18;103848.50;;;3.22;80.57
72612;BME280;60655;52.182;4.474;2023-01-25T01:33:19;103852.47;;;3.15;80.37
72612;BME280;60655;52.182;4.474;2023-01-25T01:35:20;103850.75;;;3.14;80.84
72612;BME280;60655;52.182;4.474;2023-01-25T01:37:21;103858.75;;;3.12;80.93
72612;BME280;60655;52.182;4.474;2023-01-25T01:39:22;103857.47;;;2.89;81.08
72612;BME280;60655;52.182;4.474;2023-01-25T01:41:23;103860.34;;;3.15;81.70
72612;BME280;60655;52.182;4.474;2023-01-25T01:43:24;103867.34;;;3.00;81.28
72612;BME280;60655;52.182;4.474;2023-01-25T01:47:41;103862.44;;;2.80;81.61
72612;BME280;60655;52.182;4.474;2023-01-25T01:50:00;103854.41;;;2.97;81.59
72612;BME280;60655;52.182;4.474;2023-01-25T01:52:08;103858.25;;;3.05;81.25
72612;BME280;60655;52.182;4.474;2023-01-25T01:56:26;103838.63;;;2.97;82.33
72612;BME280;60655;52.182;4.474;2023-01-25T01:58:29;103839.31;;;3.00;81.87
72612;BME280;60655;52.182;4.474;2023-01-25T02:00:36;103855.25;;;3.12;81.14
72612;BME280;60655;52.182;4.474;2023-01-25T02:02:37;103846.81;;;3.21;81.31
72612;BME280;60655;52.182;4.474;2023-01-25T02:04:39;103848.59;;;3.06;80.88
72612;BME280;60655;52.182;4.474;2023-01-25T02:06:47;103846.53;;;3.11;81.29
72612;BME280;60655;52.182;4.474;2023-01-25T02:08:51;103844.00;;;3.10;80.78
72612;BME280;60655;52.182;4.474;2023-01-25T02:10:52;103838.00;;;3.08;80.73
72612;BME280;60655;52.182;4.474;2023-01-25T02:12:54;103840.06;;;3.17;81.29
72612;BME280;60655;52.182;4.474;2023-01-25T02:14:56;103840.25;;;3.14;81.67
72612;BME280;60655;52.182;4.474;2023-01-25T02:16:57;103831.03;;;3.21;80.84
72612;BME280;60655;52.182;4.474;2023-01-25T02:18:58;103831.44;;;3.29;80.04
72612;BME280;60655;52.182;4.474;2023-01-25T02:21:01;103839.41;;;3.27;80.66
72612;BME280;60655;52.182;4.474;2023-01-25T02:23:20;103841.28;;;3.25;80.88
72612;BME280;60655;52.182;4.474;2023-01-25T02:25:22;103836.69;;;3.29;80.53
72612;BME280;60655;52.182;4.474;2023-01-25T02:27:23;103835.75;;;3.16;80.56
72612;BME280;60655;52.182;4.474;2023-01-25T02:29:26;103839.78;;;3.07;80.50
72612;BME280;60655;52.182;4.474;2023-01-25T02:31:29;103833.97;;;2.88;79.84
72612;BME280;60655;52.182;4.474;2023-01-25T02:33:30;103824.09;;;2.91;80.13
72612;BME280;60655;52.182;4.474;2023-01-25T02:37:57;103825.97;;;2.89;81.63
72612;BME280;60655;52.182;4.474;2023-01-25T02:39:58;103814.88;;;2.70;81.33
72612;BME280;60655;52.182;4.474;2023-01-25T02:41:59;103822.28;;;2.63;80.59
72612;BME280;60655;52.182;4.474;2023-01-25T02:44:05;103821.25;;;2.66;82.00
72612;BME280;60655;52.182;4.474;2023-01-25T02:46:29;103809.31;;;2.60;80.47
72612;BME280;60655;52.182;4.474;2023-01-25T02:48:31;103816.59;;;2.41;80.62
72612;BME280;60655;52.182;4.474;2023-01-25T02:50:32;103807.97;;;2.39;83.02
72612;BME280;60655;52.182;4.474;2023-01-25T02:52:33;103799.63;;;2.77;83.13
72612;BME280;60655;52.182;4.474;2023-01-25T02:54:34;103807.28;;;2.51;81.94
72612;BME280;60655;52.182;4.474;2023-01-25T02:56:35;103802.69;;;2.69;82.41
72612;BME280;60655;52.182;4.474;2023-01-25T02:58:36;103798.28;;;2.55;81.66
72612;BME280;60655;52.182;4.474;2023-01-25T03:00:37;103796.91;;;2.78;83.00
72612;BME280;60655;52.182;4.474;2023-01-25T03:02:39;103799.84;;;2.88;82.29
72612;BME280;60655;52.182;4.474;2023-01-25T03:04:40;103795.13;;;2.79;82.01
72612;BME280;60655;52.182;4.474;2023-01-25T03:06:42;103796.81;;;2.94;81.98
72612;BME280;60655;52.182;4.474;2023-01-25T03:08:43;103801.66;;;2.57;80.26
72612;BME280;60655;52.182;4.474;2023-01-25T03:10:45;103808.13;;;2.52;82.25
72612;BME280;60655;52.182;4.474;2023-01-25T03:12:46;103787.88;;;2.54;81.78
72612;BME280;60655;52.182;4.474;2023-01-25T03:14:48;103792.56;;;2.49;81.16
72612;BME280;60655;52.182;4.474;2023-01-25T03:16:49;103794.84;;;2.39;83.16
72612;BME280;60655;52.182;4.474;2023-01-25T03:18:53;103792.09;;;2.56;82.09
72612;BME280;60655;52.182;4.474;2023-01-25T03:20:55;103795.22;;;2.33;80.70
72612;BME280;60655;52.182;4.474;2023-01-25T03:22:56;103789.59;;;2.39;82.36
72612;BME280;60655;52.182;4.474;2023-01-25T03:24:56;103788.53;;;2.57;82.68
72612;BME280;60655;52.182;4.474;2023-01-25T03:26:57;103798.81;;;2.46;81.45
72612;BME280;60655;52.182;4.474;2023-01-25T03:29:10;103798.59;;;2.35;82.35
72612;BME280;60655;52.182;4.474;2023-01-25T03:31:13;103803.06;;;2.33;81.71
72612;BME280;60655;52.182;4.474;2023-01-25T03:33:14;103793.94;;;2.40;82.13
72612;BME280;60655;52.182;4.474;2023-01-25T03:35:15;103795.41;;;2.60;83.18
72612;BME280;60655;52.182;4.474;2023-01-25T03:37:16;103794.56;;;2.59;82.15
72612;BME280;60655;52.182;4.474;2023-01-25T03:39:17;103788.91;;;2.51;82.73
72612;BME280;60655;52.182;4.474;2023-01-25T03:41:18;103793.03;;;2.55;82.07
72612;BME280;60655;52.182;4.474;2023-01-25T03:43:20;103787.31;;;2.63;81.80
72612;BME280;60655;52.182;4.474;2023-01-25T03:45:21;103781.78;;;2.67;82.04
72612;BME280;60655;52.182;4.474;2023-01-25T03:47:22;103772.72;;;2.59;81.52
72612;BME280;60655;52.182;4.474;2023-01-25T03:49:23;103780.09;;;2.52;81.96
72612;BME280;60655;52.182;4.474;2023-01-25T03:51:24;103779.06;;;2.55;82.25
72612;BME280;60655;52.182;4.474;2023-01-25T03:53:29;103772.97;;;2.54;82.65
72612;BME280;60655;52.182;4.474;2023-01-25T03:55:30;103770.09;;;2.59;82.22
72612;BME280;60655;52.182;4.474;2023-01-25T03:57:31;103776.44;;;2.55;81.35
72612;BME280;60655;52.182;4.474;2023-01-25T03:59:32;103771.34;;;2.37;82.56
72612;BME280;60655;52.182;4.474;2023-01-25T04:01:33;103763.94;;;2.30;82.22
72612;BME280;60655;52.182;4.474;2023-01-25T04:03:34;103765.75;;;2.14;82.24
72612;BME280;60655;52.182;4.474;2023-01-25T04:05:35;103763.94;;;2.30;82.74
72612;BME280;60655;52.182;4.474;2023-01-25T04:07:36;103756.34;;;2.25;82.40
72612;BME280;60655;52.182;4.474;2023-01-25T04:09:37;103755.78;;;2.04;82.31
72612;BME280;60655;52.182;4.474;2023-01-25T04:11:38;103751.59;;;1.86;83.02
72612;BME280;60655;52.182;4.474;2023-01-25T04:13:39;103753.47;;;1.84;84.88
72612;BME280;60655;52.182;4.474;2023-01-25T04:15:40;103753.22;;;2.19;83.76
72612;BME280;60655;52.182;4.474;2023-01-25T04:17:41;103744.41;;;2.20;83.97
72612;BME280;60655;52.182;4.474;2023-01-25T04:19:42;103737.53;;;2.47;83.66
72612;BME280;60655;52.182;4.474;2023-01-25T04:21:43;103736.78;;;2.45;83.14
72612;BME280;60655;52.182;4.474;2023-01-25T04:23:43;103737.81;;;2.43;83.08
72612;BME280;60655;52.182;4.474;2023-01-25T04:25:57;103731.31;;;2.34;83.35
72612;BME280;60655;52.182;4.474;2023-01-25T04:27:58;103734.78;;;2.34;81.91
72612;BME280;60655;52.182;4.474;2023-01-25T04:29:59;103736.03;;;2.43;83.05
72612;BME280;60655;52.182;4.474;2023-01-25T04:32:00;103731.63;;;2.44;82.92
72612;BME280;60655;52.182;4.474;2023-01-25T04:34:01;103730.34;;;2.51;83.15
72612;BME280;60655;52.182;4.474;2023-01-25T04:36:02;103730.88;;;2.27;81.59
72612;BME280;60655;52.182;4.474;2023-01-25T04:38:05;103729.13;;;2.12;82.46
72612;BME280;60655;52.182;4.474;2023-01-25T04:40:07;103730.56;;;2.18;82.65
72612;BME280;60655;52.182;4.474;2023-01-25T04:42:08;103729.31;;;2.09;82.58
72612;BME280;60655;52.182;4.474;2023-01-25T04:44:09;103715.69;;;2.02;82.55
72612;BME280;60655;52.182;4.474;2023-01-25T04:46:10;103734.06;;;2.02;82.29
72612;BME280;60655;52.182;4.474;2023-01-25T04:48:12;103734.06;;;2.02;84.14
72612;BME280;60655;52.182;4.474;2023-01-25T04:50:14;103729.63;;;2.19;83.69
72612;BME280;60655;52.182;4.474;2023-01-25T04:52:33;103731.56;;;2.15;83.21
72612;BME280;60655;52.182;4.474;2023-01-25T04:54:34;103727.88;;;2.03;83.29
72612;BME280;60655;52.182;4.474;2023-01-25T04:56:35;103721.00;;;2.17;83.67
72612;BME280;60655;52.182;4.474;2023-01-25T04:58:36;103715.44;;;2.07;83.38
72612;BME280;60655;52.182;4.474;2023-01-25T05:00:37;103698.84;;;1.92;84.15
72612;BME280;60655;52.182;4.474;2023-01-25T05:02:38;103721.94;;;2.16;84.02
72612;BME280;60655;52.182;4.474;2023-01-25T05:04:39;103721.03;;;2.31;84.09
72612;BME280;60655;52.182;4.474;2023-01-25T05:06:40;103715.22;;;2.40;83.91
72612;BME280;60655;52.182;4.474;2023-01-25T05:08:41;103730.22;;;2.38;83.57
72612;BME280;60655;52.182;4.474;2023-01-25T05:10:42;103720.91;;;2.18;82.84
72612;BME280;60655;52.182;4.474;2023-01-25T05:12:43;103720.06;;;2.32;83.17
72612;BME280;60655;52.182;4.474;2023-01-25T05:14:44;103715.88;;;2.29;83.23
72612;BME280;60655;52.182;4.474;2023-01-25T05:16:45;103725.31;;;2.18;83.00
72612;BME280;60655;52.182;4.474;2023-01-25T05:18:47;103720.50;;;2.10;82.64
72612;BME280;60655;52.182;4.474;2023-01-25T05:20:53;103720.22;;;2.00;82.89
72612;BME280;60655;52.182;4.474;2023-01-25T05:22:54;103710.47;;;2.02;84.02
72612;BME280;60655;52.182;4.474;2023-01-25T05:24:55;103720.59;;;2.09;83.94
72612;BME280;60655;52.182;4.474;2023-01-25T05:26:56;103721.25;;;2.12;82.78
72612;BME280;60655;52.182;4.474;2023-01-25T05:29:00;103717.22;;;2.07;83.42
72612;BME280;60655;52.182;4.474;2023-01-25T05:31:04;103712.91;;;2.06;83.04
72612;BME280;60655;52.182;4.474;2023-01-25T05:33:05;103715.91;;;1.99;83.67
72612;BME280;60655;52.182;4.474;2023-01-25T05:35:06;103721.31;;;1.96;82.88
72612;BME280;60655;52.182;4.474;2023-01-25T05:37:09;103715.69;;;2.02;82.12
72612;BME280;60655;52.182;4.474;2023-01-25T05:39:11;103714.13;;;2.00;82.64
72612;BME280;60655;52.182;4.474;2023-01-25T05:41:12;103703.66;;;1.84;82.04
72612;BME280;60655;52.182;4.474;2023-01-25T05:43:13;103708.59;;;1.75;82.30
72612;BME280;60655;52.182;4.474;2023-01-25T05:45:14;103715.22;;;1.66;84.27
72612;BME280;60655;52.182;4.474;2023-01-25T05:47:16;103707.47;;;1.79;84.50
72612;BME280;60655;52.182;4.474;2023-01-25T05:49:18;103715.94;;;1.84;83.32
72612;BME280;60655;52.182;4.474;2023-01-25T05:51:19;103713.97;;;1.87;83.55
72612;BME280;60655;52.182;4.474;2023-01-25T05:53:26;103715.13;;;1.67;83.38
72612;BME280;60655;52.182;4.474;2023-01-25T05:55:27;103724.06;;;1.79;84.11
72612;BME280;60655;52.182;4.474;2023-01-25T05:57:28;103726.94;;;1.75;83.51
72612;BME280;60655;52.182;4.474;2023-01-25T05:59:29;103734.53;;;1.95;84.12
72612;BME280;60655;52.182;4.474;2023-01-25T06:01:30;103734.16;;;2.01;83.35
72612;BME280;60655;52.182;4.474;2023-01-25T06:03:31;103729.78;;;2.01;83.76
72612;BME280;60655;52.182;4.474;2023-01-25T06:05:32;103729.31;;;2.09;83.85
72612;BME280;60655;52.182;4.474;2023-01-25T06:07:34;103726.47;;;1.98;83.06
72612;BME280;60655;52.182;4.474;2023-01-25T06:09:38;103724.31;;;2.04;82.92
72612;BME280;60655;52.182;4.474;2023-01-25T06:11:42;103727.34;;;2.13;83.59
72612;BME280;60655;52.182;4.474;2023-01-25T06:13:45;103724.63;;;2.14;83.77
72612;BME280;60655;52.182;4.474;2023-01-25T06:15:53;103717.19;;;2.36;84.37
72612;BME280;60655;52.182;4.474;2023-01-25T06:17:54;103718.91;;;2.08;82.43
72612;BME280;60655;52.182;4.474;2023-01-25T06:19:55;103725.16;;;2.05;82.16
72612;BME280;60655;52.182;4.474;2023-01-25T06:21:56;103718.31;;;2.02;83.33
72612;BME280;60655;52.182;4.474;2023-01-25T06:23:57;103724.44;;;1.57;81.46
72612;BME280;60655;52.182;4.474;2023-01-25T06:26:04;103719.91;;;1.91;85.04
72612;BME280;60655;52.182;4.474;2023-01-25T06:28:05;103716.47;;;2.04;83.88
72612;BME280;60655;52.182;4.474;2023-01-25T06:30:07;103713.75;;;2.06;83.19
72612;BME280;60655;52.182;4.474;2023-01-25T06:32:08;103708.81;;;2.01;83.04
72612;BME280;60655;52.182;4.474;2023-01-25T06:34:09;103717.72;;;1.83;82.77
72612;BME280;60655;52.182;4.474;2023-01-25T06:36:12;103716.84;;;1.98;83.75
72612;BME280;60655;52.182;4.474;2023-01-25T06:38:13;103715.53;;;1.76;82.21
72612;BME280;60655;52.182;4.474;2023-01-25T06:40:14;103716.25;;;1.93;84.75
72612;BME280;60655;52.182;4.474;2023-01-25T06:42:15;103714.03;;;2.01;83.62
72612;BME280;60655;52.182;4.474;2023-01-25T06:44:16;103707.13;;;2.00;84.17
72612;BME280;60655;52.182;4.474;2023-01-25T06:46:18;103707.31;;;2.12;85.17
72612;BME280;60655;52.182;4.474;2023-01-25T06:48:19;103707.47;;;1.94;83.86
72612;BME280;60655;52.182;4.474;2023-01-25T06:50:20;103707.91;;;1.87;83.33
72612;BME280;60655;52.182;4.474;2023-01-25T06:52:21;103706.19;;;2.01;83.74
72612;BME280;60655;52.182;4.474;2023-01-25T06:54:22;103716.94;;;2.11;83.39
72612;BME280;60655;52.182;4.474;2023-01-25T06:56:23;103706.72;;;2.07;83.33
72612;BME280;60655;52.182;4.474;2023-01-25T06:58:25;103705.97;;;2.04;84.92
72612;BME280;60655;52.182;4.474;2023-01-25T07:00:26;103705.41;;;1.99;83.89
72612;BME280;60655;52.182;4.474;2023-01-25T07:02:27;103702.97;;;1.96;84.11
72612;BME280;60655;52.182;4.474;2023-01-25T07:04:28;103708.22;;;1.96;83.02
72612;BME280;60655;52.182;4.474;2023-01-25T07:06:31;103705.78;;;1.78;83.14
72612;BME280;60655;52.182;4.474;2023-01-25T07:08:36;103711.66;;;1.67;83.46
72612;BME280;60655;52.182;4.474;2023-01-25T07:10:37;103701.66;;;1.74;85.14
72612;BME280;60655;52.182;4.474;2023-01-25T07:12:38;103707.13;;;1.85;84.72
72612;BME280;60655;52.182;4.474;2023-01-25T07:14:39;103709.00;;;1.83;83.76
72612;BME280;60655;52.182;4.474;2023-01-25T07:16:40;103712.50;;;1.67;84.55
72612;BME280;60655;52.182;4.474;2023-01-25T07:18:41;103704.25;;;1.89;83.84
72612;BME280;60655;52.182;4.474;2023-01-25T07:20:42;103705.28;;;1.87;84.27
72612;BME280;60655;52.182;4.474;2023-01-25T07:22:43;103699.09;;;1.88;84.77
72612;BME280;60655;52.182;4.474;2023-01-25T07:24:44;103698.69;;;2.10;84.29
72612;BME280;60655;52.182;4.474;2023-01-25T07:26:49;103686.53;;;2.23;84.16
72612;BME280;60655;52.182;4.474;2023-01-25T07:28:51;103676.16;;;2.21;83.13
72612;BME280;60655;52.182;4.474;2023-01-25T07:30:52;103673.91;;;2.29;83.74
72612;BME280;60655;52.182;4.474;2023-01-25T07:32:53;103676.81;;;2.25;84.11
72612;BME280;60655;52.182;4.474;2023-01-25T07:34:55;103674.91;;;2.13;82.77
72612;BME280;60655;52.182;4.474;2023-01-25T07:36:56;103679.72;;;2.20;83.43
72612;BME280;60655;52.182;4.474;2023-01-25T07:38:57;103672.28;;;2.13;83.78
72612;BME280;60655;52.182;4.474;2023-01-25T07:40:58;103673.03;;;2.00;82.98
72612;BME280;60655;52.182;4.474;2023-01-25T07:42:59;103669.22;;;2.20;83.78
72612;BME280;60655;52.182;4.474;2023-01-25T07:45:00;103677.25;;;2.31;84.19
72612;BME280;60655;52.182;4.474;2023-01-25T07:47:01;103669.56;;;2.14;82.73
72612;BME280;60655;52.182;4.474;2023-01-25T07:49:02;103666.81;;;1.87;82.64
72612;BME280;60655;52.182;4.474;2023-01-25T07:51:05;103653.53;;;2.04;84.19
72612;BME280;60655;52.182;4.474;2023-01-25T07:53:12;103650.19;;;2.17;84.00
72612;BME280;60655;52.182;4.474;2023-01-25T07:55:13;103659.88;;;2.30;83.84
72612;BME280;60655;52.182;4.474;2023-01-25T07:57:15;103661.34;;;2.20;83.02
72612;BME280;60655;52.182;4.474;2023-01-25T07:59:16;103660.88;;;2.14;83.22
72612;BME280;60655;52.182;4.474;2023-01-25T08:01:18;103658.28;;;1.84;83.60
72612;BME280;60655;52.182;4.474;2023-01-25T08:03:20;103665.53;;;2.09;84.00
72612;BME280;60655;52.182;4.474;2023-01-25T08:05:21;103655.59;;;1.99;82.87
72612;BME280;60655;52.182;4.474;2023-01-25T08:07:22;103662.91;;;1.94;83.11
72612;BME280;60655;52.182;4.474;2023-01-25T08:09:23;103659.13;;;1.84;83.39
72612;BME280;60655;52.182;4.474;2023-01-25T08:11:26;103649.88;;;2.07;84.06
72612;BME280;60655;52.182;4.474;2023-01-25T08:13:28;103652.44;;;2.23;84.38
72612;BME280;60655;52.182;4.474;2023-01-25T08:15:29;103653.22;;;2.25;83.75
72612;BME280;60655;52.182;4.474;2023-01-25T08:17:29;103651.25;;;2.28;83.86
72612;BME280;60655;52.182;4.474;2023-01-25T08:19:34;103641.97;;;2.37;83.13
72612;BME280;60655;52.182;4.474;2023-01-25T08:21:35;103643.47;;;2.41;82.86
72612;BME280;60655;52.182;4.474;2023-01-25T08:23:36;103641.41;;;2.46;82.87
72612;BME280;60655;52.182;4.474;2023-01-25T08:25:36;103641.09;;;2.65;82.90
72612;BME280;60655;52.182;4.474;2023-01-25T08:27:39;103643.72;;;2.65;82.56
72612;BME280;60655;52.182;4.474;2023-01-25T08:29:40;103639.22;;;2.81;83.20
72612;BME280;60655;52.182;4.474;2023-01-25T08:31:41;103634.34;;;2.61;82.36
72612;BME280;60655;52.182;4.474;2023-01-25T08:33:44;103641.88;;;2.53;81.66
72612;BME280;60655;52.182;4.474;2023-01-25T08:35:55;103642.72;;;2.53;82.06
72612;BME280;60655;52.182;4.474;2023-01-25T08:37:57;103639.88;;;2.70;82.72
72612;BME280;60655;52.182;4.474;2023-01-25T08:39:57;103629.84;;;2.63;81.69
72612;BME280;60655;52.182;4.474;2023-01-25T08:41:59;103641.38;;;2.75;82.41
72612;BME280;60655;52.182;4.474;2023-01-25T08:44:00;103632.28;;;2.66;81.99
72612;BME280;60655;52.182;4.474;2023-01-25T08:46:01;103634.06;;;2.65;82.63
72612;BME280;60655;52.182;4.474;2023-01-25T08:48:02;103637.44;;;2.67;82.27
72612;BME280;60655;52.182;4.474;2023-01-25T08:50:04;103636.69;;;2.65;82.29
72612;BME280;60655;52.182;4.474;2023-01-25T08:52:05;103632.78;;;2.44;82.69
72612;BME280;60655;52.182;4.474;2023-01-25T08:54:08;103629.03;;;2.48;82.11
72612;BME280;60655;52.182;4.474;2023-01-25T08:56:12;103631.09;;;2.29;82.90
72612;BME280;60655;52.182;4.474;2023-01-25T08:58:14;103623.22;;;2.43;82.52
72612;BME280;60655;52.182;4.474;2023-01-25T09:00:16;103636.81;;;2.35;82.33
72612;BME280;60655;52.182;4.474;2023-01-25T09:02:17;103624.91;;;2.58;82.92
72612;BME280;60655;52.182;4.474;2023-01-25T09:04:20;103635.94;;;2.78;83.18
72612;BME280;60655;52.182;4.474;2023-01-25T09:06:24;103626.47;;;2.61;82.27
72612;BME280;60655;52.182;4.474;2023-01-25T09:08:25;103629.56;;;2.67;82.24
72612;BME280;60655;52.182;4.474;2023-01-25T09:10:28;103629.00;;;2.62;82.81
72612;BME280;60655;52.182;4.474;2023-01-25T09:12:29;103629.94;;;2.61;82.65
72612;BME280;60655;52.182;4.474;2023-01-25T09:14:31;103628.66;;;2.54;82.48
72612;BME280;60655;52.182;4.474;2023-01-25T09:16:32;103616.19;;;2.44;81.12
72612;BME280;60655;52.182;4.474;2023-01-25T09:18:35;103615.44;;;2.13;81.49
72612;BME280;60655;52.182;4.474;2023-01-25T09:20:39;103607.47;;;2.43;83.93
72612;BME280;60655;52.182;4.474;2023-01-25T09:22:40;103606.25;;;2.49;82.61
72612;BME280;60655;52.182;4.474;2023-01-25T09:24:41;103606.97;;;2.65;83.90
72612;BME280;60655;52.182;4.474;2023-01-25T09:26:42;103593.53;;;2.43;81.61
72612;BME280;60655;52.182;4.474;2023-01-25T09:28:46;103595.94;;;2.31;82.59
72612;BME280;60655;52.182;4.474;2023-01-25T09:30:59;103598.97;;;2.40;82.54
72612;BME280;60655;52.182;4.474;2023-01-25T09:33:00;103599.63;;;2.43;82.79
72612;BME280;60655;52.182;4.474;2023-01-25T09:35:04;103595.22;;;2.58;82.72
72612;BME280;60655;52.182;4.474;2023-01-25T09:37:05;103594.56;;;2.54;81.59
72612;BME280;60655;52.182;4.474;2023-01-25T09:39:09;103593.72;;;2.54;83.54
72612;BME280;60655;52.182;4.474;2023-01-25T09:41:21;103591.84;;;2.42;82.38
72612;BME280;60655;52.182;4.474;2023-01-25T09:45:50;103586.13;;;2.49;83.92
72612;BME280;60655;52.182;4.474;2023-01-25T09:48:28;103583.66;;;2.60;83.95
72612;BME280;60655;52.182;4.474;2023-01-25T09:50:46;103572.22;;;2.61;83.33
72612;BME280;60655;52.182;4.474;2023-01-25T09:54:59;103566.94;;;2.76;82.73
72612;BME280;60655;52.182;4.474;2023-01-25T09:57:01;103567.81;;;2.89;83.63
72612;BME280;60655;52.182;4.474;2023-01-25T09:59:03;103565.66;;;2.95;83.64
72612;BME280;60655;52.182;4.474;2023-01-25T10:05:28;103550.16;;;3.05;82.89
72612;BME280;60655;52.182;4.474;2023-01-25T10:07:44;103553.63;;;2.79;80.66
72612;BME280;60655;52.182;4.474;2023-01-25T10:09:59;103549.09;;;2.54;82.04
72612;BME280;60655;52.182;4.474;2023-01-25T10:12:22;103543.94;;;2.52;82.41
72612;BME280;60655;52.182;4.474;2023-01-25T10:14:24;103549.81;;;2.70;83.34
72612;BME280;60655;52.182;4.474;2023-01-25T10:16:47;103545.19;;;2.74;84.06
72612;BME280;60655;52.182;4.474;2023-01-25T10:21:01;103534.59;;;2.75;82.71
72612;BME280;60655;52.182;4.474;2023-01-25T10:25:39;103532.53;;;2.80;82.23
72612;BME280;60655;52.182;4.474;2023-01-25T10:29:56;103518.31;;;2.97;83.65
72612;BME280;60655;52.182;4.474;2023-01-25T10:32:16;103526.56;;;2.91;82.24
72612;BME280;60655;52.182;4.474;2023-01-25T10:34:28;103525.53;;;2.93;82.01
72612;BME280;60655;52.182;4.474;2023-01-25T10:36:29;103520.00;;;2.71;81.45
72612;BME280;60655;52.182;4.474;2023-01-25T10:38:39;103499.25;;;2.81;82.80
72612;BME280;60655;52.182;4.474;2023-01-25T10:40:49;103511.97;;;2.87;81.98
72612;BME280;60655;52.182;4.474;2023-01-25T10:43:01;103504.03;;;3.01;82.63
72612;BME280;60655;52.182;4.474;2023-01-25T10:45:10;103503.59;;;2.94;81.51
72612;BME280;60655;52.182;4.474;2023-01-25T10:47:26;103509.19;;;2.49;81.09
72612;BME280;60655;52.182;4.474;2023-01-25T10:51:36;103495.91;;;2.64;83.11
72612;BME280;60655;52.182;4.474;2023-01-25T10:53:37;103482.84;;;2.77;82.89
72612;BME280;60655;52.182;4.474;2023-01-25T10:58:28;103466.00;;;2.67;81.04
72612;BME280;60655;52.182;4.474;2023-01-25T11:00:40;103480.03;;;2.53;81.56
72612;BME280;60655;52.182;4.474;2023-01-25T11:02:44;103476.88;;;2.48;81.87
72612;BME280;60655;52.182;4.474;2023-01-25T11:04:46;103477.22;;;2.29;83.16
72612;BME280;60655;52.182;4.474;2023-01-25T11:06:48;103472.75;;;2.44;83.14
72612;BME280;60655;52.182;4.474;2023-01-25T11:08:51;103466.63;;;2.31;82.09
72612;BME280;60655;52.182;4.474;2023-01-25T11:10:53;103470.06;;;2.31;82.72
72612;BME280;60655;52.182;4.474;2023-01-25T11:15:24;103466.50;;;2.86;84.19
72612;BME280;60655;52.182;4.474;2023-01-25T11:17:30;103449.28;;;2.82;82.52
72612;BME280;60655;52.182;4.474;2023-01-25T11:19:36;103447.59;;;2.81;82.39
72612;BME280;60655;52.182;4.474;2023-01-25T11:21:50;103430.50;;;3.01;81.73
72612;BME280;60655;52.182;4.474;2023-01-25T11:28:22;103416.94;;;2.82;81.27